createdAt,value
2019-03-10T00:00:47.365Z,24.43
2019-03-10T00:03:19.322Z,22.53
2019-03-10T00:05:51.416Z,30.77
2019-03-10T00:08:23.378Z,19.97
2019-03-10T00:10:55.654Z,18.27
2019-03-10T00:13:27.607Z,22.47
2019-03-10T00:15:59.577Z,27.77
2019-03-10T00:18:31.522Z,17.87
2019-03-10T00:21:03.515Z,20.27
2019-03-10T00:23:35.770Z,15.20
2019-03-10T00:26:07.751Z,26.23
2019-03-10T00:28:39.770Z,22.90
2019-03-10T00:31:11.710Z,19.03
2019-03-10T00:33:44.037Z,17.53
2019-03-10T00:36:16.050Z,25.13
2019-03-10T00:39:07.818Z,22.30
2019-03-10T00:42:03.756Z,21.13
2019-03-10T00:45:12.136Z,15.20
2019-03-10T00:48:03.371Z,21.53
2019-03-10T00:51:01.160Z,22.70
2019-03-10T00:53:33.122Z,24.63
2019-03-10T00:56:05.072Z,14.80
2019-03-10T00:58:37.027Z,21.50
2019-03-10T01:01:09.172Z,22.37
2019-03-10T01:03:42.312Z,16.63
2019-03-10T01:06:14.527Z,19.37
2019-03-10T01:08:46.856Z,15.77
2019-03-10T01:11:19.344Z,13.07
2019-03-10T01:13:51.308Z,17.50
2019-03-10T01:16:24.247Z,23.60
2019-03-10T01:18:57.279Z,22.50
2019-03-10T01:21:32.142Z,21.40
2019-03-10T01:24:04.221Z,19.93
2019-03-10T01:26:36.199Z,18.37
2019-03-10T01:29:08.161Z,22.83
2019-03-10T01:32:02.680Z,19.87
2019-03-10T01:34:45.178Z,26.63
2019-03-10T01:37:17.502Z,17.87
2019-03-10T01:39:49.898Z,18.33
2019-03-10T01:42:21.951Z,24.73
2019-03-10T01:44:53.926Z,19.53
2019-03-10T01:47:25.950Z,24.37
2019-03-10T01:49:58.083Z,26.70
2019-03-10T01:52:30.507Z,25.47
2019-03-10T01:55:02.752Z,28.83
2019-03-10T01:57:34.771Z,19.83
2019-03-10T02:00:11.936Z,13.17
2019-03-10T02:02:44.076Z,17.47
2019-03-10T02:05:16.059Z,27.03
2019-03-10T02:07:47.994Z,21.47
2019-03-10T02:10:20.022Z,20.53
2019-03-10T02:12:51.968Z,25.73
2019-03-10T02:15:23.925Z,30.47
2019-03-10T02:17:55.885Z,19.70
2019-03-10T02:20:28.116Z,30.27
2019-03-10T02:23:00.068Z,24.17
2019-03-10T02:25:32.213Z,16.37
2019-03-10T02:28:04.156Z,20.10
2019-03-10T02:30:36.124Z,24.37
2019-03-10T02:33:08.066Z,24.97
2019-03-10T02:35:40.055Z,24.77
2019-03-10T02:38:12.291Z,28.87
2019-03-10T02:40:44.269Z,25.17
2019-03-10T02:43:16.215Z,33.70
2019-03-10T02:45:48.179Z,23.07
2019-03-10T02:48:20.137Z,23.37
2019-03-10T02:50:52.104Z,27.07
2019-03-10T02:53:24.365Z,26.57
2019-03-10T02:55:56.314Z,23.67
2019-03-10T02:58:28.262Z,28.40
2019-03-10T03:01:00.213Z,34.27
2019-03-10T03:03:32.203Z,26.67
2019-03-10T03:06:04.156Z,22.07
2019-03-10T03:08:36.105Z,30.03
2019-03-10T03:11:08.069Z,31.37
2019-03-10T03:13:40.019Z,27.10
2019-03-10T03:16:12.007Z,23.57
2019-03-10T03:18:43.958Z,27.30
2019-03-10T03:21:15.920Z,26.70
2019-03-10T03:23:48.038Z,26.97
2019-03-10T03:26:19.994Z,28.90
2019-03-10T03:28:51.940Z,23.93
2019-03-10T03:31:24.230Z,31.40
2019-03-10T03:33:56.269Z,20.33
2019-03-10T03:36:31.840Z,27.63
2019-03-10T03:39:11.644Z,29.53
2019-03-10T03:41:43.611Z,30.37
2019-03-10T03:44:15.575Z,25.80
2019-03-10T03:46:47.573Z,22.33
2019-03-10T03:49:19.532Z,29.53
2019-03-10T03:51:51.828Z,31.60
2019-03-10T03:54:23.779Z,38.53
2019-03-10T03:56:55.766Z,30.57
2019-03-10T03:59:27.813Z,26.23
2019-03-10T04:02:01.401Z,33.60
2019-03-10T04:04:33.365Z,30.77
2019-03-10T04:07:05.334Z,26.77
2019-03-10T04:09:37.302Z,28.67
2019-03-10T04:12:09.271Z,24.93
2019-03-10T04:14:41.225Z,35.83
2019-03-10T04:17:13.254Z,26.23
2019-03-10T04:19:45.331Z,29.13
2019-03-10T04:22:17.272Z,31.47
2019-03-10T04:24:49.238Z,23.37
2019-03-10T04:27:21.458Z,20.47
2019-03-10T04:29:53.753Z,29.03
2019-03-10T04:32:26.004Z,19.17
2019-03-10T04:34:57.963Z,33.37
2019-03-10T04:37:29.978Z,28.63
2019-03-10T04:40:01.938Z,28.33
2019-03-10T04:42:33.924Z,29.57
2019-03-10T04:45:07.654Z,34.47
2019-03-10T04:47:39.646Z,28.63
2019-03-10T04:50:11.715Z,24.37
2019-03-10T04:52:43.695Z,27.43
2019-03-10T04:55:20.536Z,24.90
2019-03-10T04:58:03.459Z,22.23
2019-03-10T05:00:37.044Z,27.07
2019-03-10T05:03:09.007Z,26.20
2019-03-10T05:05:40.978Z,22.53
2019-03-10T05:08:12.973Z,30.60
2019-03-10T05:10:46.346Z,34.17
2019-03-10T05:13:18.620Z,25.00
2019-03-10T05:15:50.563Z,24.20
2019-03-10T05:18:22.847Z,20.67
2019-03-10T05:20:54.798Z,24.37
2019-03-10T05:23:41.137Z,24.13
2019-03-10T05:26:13.108Z,25.47
2019-03-10T05:28:45.974Z,25.60
2019-03-10T05:31:17.930Z,15.33
2019-03-10T05:33:49.903Z,13.90
2019-03-10T05:36:21.906Z,12.97
2019-03-10T05:38:53.864Z,12.53
2019-03-10T05:41:25.797Z,9.50
2019-03-10T05:43:58.845Z,8.67
2019-03-10T05:46:31.027Z,9.43
2019-03-10T05:49:03.024Z,9.17
2019-03-10T05:51:35.006Z,14.50
2019-03-10T05:54:06.950Z,15.37
2019-03-10T05:56:38.901Z,15.53
2019-03-10T05:59:10.869Z,12.17
2019-03-10T06:01:42.982Z,19.57
2019-03-10T06:04:15.415Z,20.00
2019-03-10T06:06:47.380Z,21.37
2019-03-10T06:09:19.357Z,24.37
2019-03-10T06:11:51.371Z,21.77
2019-03-10T06:14:23.335Z,23.20
2019-03-10T06:16:55.315Z,28.80
2019-03-10T06:19:27.359Z,27.50
2019-03-10T06:21:59.391Z,23.30
2019-03-10T06:24:31.364Z,31.93
2019-03-10T06:27:03.709Z,21.93
2019-03-10T06:29:35.652Z,24.40
2019-03-10T06:32:07.632Z,22.00
2019-03-10T06:34:39.719Z,28.37
2019-03-10T06:37:11.698Z,28.87
2019-03-10T06:39:43.729Z,20.63
2019-03-10T06:42:15.728Z,22.60
2019-03-10T06:44:47.899Z,27.50
2019-03-10T06:47:19.849Z,24.57
2019-03-10T06:49:51.815Z,25.33
2019-03-10T06:52:23.779Z,26.00
2019-03-10T06:54:55.745Z,27.63
2019-03-10T06:57:27.693Z,27.30
2019-03-10T06:59:59.656Z,28.37
2019-03-10T07:02:31.613Z,22.87
2019-03-10T07:05:03.626Z,26.07
2019-03-10T07:07:35.623Z,20.23
2019-03-10T07:10:16.205Z,33.07
2019-03-10T07:12:48.159Z,16.80
2019-03-10T07:15:20.193Z,32.20
2019-03-10T07:17:52.165Z,19.97
2019-03-10T07:20:24.135Z,27.80
2019-03-10T07:22:56.096Z,21.43
2019-03-10T07:25:28.078Z,25.90
2019-03-10T07:28:02.004Z,30.70
2019-03-10T07:30:41.759Z,21.23
2019-03-10T07:33:15.383Z,30.37
2019-03-10T07:35:57.878Z,25.07
2019-03-10T07:38:34.365Z,24.93
2019-03-10T07:41:23.803Z,23.73
2019-03-10T07:44:00.161Z,31.40
2019-03-10T07:46:33.778Z,25.23
2019-03-10T07:49:24.061Z,29.57
2019-03-10T07:52:20.105Z,25.90
2019-03-10T07:55:09.871Z,19.57
2019-03-10T07:57:43.883Z,29.70
2019-03-10T08:00:20.299Z,20.60
2019-03-10T08:02:57.015Z,20.90
2019-03-10T08:05:36.491Z,28.07
2019-03-10T08:08:10.101Z,26.23
2019-03-10T08:10:49.811Z,27.07
2019-03-10T08:13:26.119Z,20.47
2019-03-10T08:16:02.636Z,22.77
2019-03-10T08:18:41.779Z,18.87
2019-03-10T08:21:15.392Z,17.97
2019-03-10T08:23:54.662Z,24.17
2019-03-10T08:26:44.952Z,28.70
2019-03-10T08:29:24.514Z,19.80
2019-03-10T08:32:00.958Z,24.17
2019-03-10T08:34:47.419Z,25.30
2019-03-10T08:37:23.847Z,19.40
2019-03-10T08:40:00.427Z,24.83
2019-03-10T08:42:37.135Z,23.47
2019-03-10T08:45:13.961Z,20.50
2019-03-10T08:47:47.567Z,23.27
2019-03-10T08:50:33.257Z,30.50
2019-03-10T08:53:15.815Z,14.40
2019-03-10T08:55:49.497Z,18.63
2019-03-10T08:58:35.115Z,17.30
2019-03-10T09:01:23.638Z,20.50
2019-03-10T09:04:06.238Z,14.67
2019-03-10T09:06:44.633Z,18.53
2019-03-10T09:09:23.997Z,21.03
2019-03-10T09:11:57.609Z,19.00
2019-03-10T09:14:40.123Z,23.27
2019-03-10T09:17:13.794Z,19.17
2019-03-10T09:20:03.595Z,19.33
2019-03-10T09:22:42.928Z,16.07
2019-03-10T09:25:22.975Z,23.87
2019-03-10T09:27:59.486Z,22.17
2019-03-10T09:30:45.403Z,17.33
2019-03-10T09:33:28.080Z,18.80
2019-03-10T09:36:01.778Z,13.83
2019-03-10T09:38:38.709Z,18.07
2019-03-10T09:41:14.959Z,21.43
2019-03-10T09:43:48.630Z,21.33
2019-03-10T09:46:33.951Z,16.13
2019-03-10T09:49:10.203Z,19.87
2019-03-10T09:51:43.861Z,21.80
2019-03-10T09:54:23.457Z,16.87
2019-03-10T09:57:09.624Z,19.23
2019-03-10T09:59:46.132Z,19.17
2019-03-10T10:02:28.854Z,18.00
2019-03-10T10:05:05.563Z,19.50
2019-03-10T10:07:54.457Z,22.93
2019-03-10T10:10:28.045Z,22.37
2019-03-10T10:13:17.813Z,14.90
2019-03-10T10:16:03.428Z,15.47
2019-03-10T10:18:37.016Z,19.03
2019-03-10T10:21:16.494Z,22.37
2019-03-10T10:23:50.079Z,13.87
2019-03-10T10:26:32.638Z,13.60
2019-03-10T10:29:09.257Z,20.77
2019-03-10T10:31:51.628Z,18.73
2019-03-10T10:34:27.894Z,25.17
2019-03-10T10:37:01.574Z,15.20
2019-03-10T10:39:44.008Z,12.13
2019-03-10T10:42:26.599Z,19.60
2019-03-10T10:45:00.357Z,16.50
2019-03-10T10:47:36.674Z,18.10
2019-03-10T10:50:28.896Z,17.83
2019-03-10T10:53:05.449Z,13.17
2019-03-10T10:55:48.165Z,18.33
2019-03-10T10:58:39.717Z,12.60
2019-03-10T11:01:25.179Z,13.33
2019-03-10T11:03:58.761Z,11.47
2019-03-10T11:06:47.348Z,15.47
2019-03-10T11:09:20.969Z,15.43
2019-03-10T11:12:03.514Z,12.27
2019-03-10T11:14:42.815Z,13.40
2019-03-10T11:17:25.112Z,7.47
2019-03-10T11:20:07.611Z,11.13
2019-03-10T11:22:57.652Z,14.73
2019-03-10T11:25:34.598Z,9.93
2019-03-10T11:28:14.091Z,14.67
2019-03-10T11:30:47.768Z,20.80
2019-03-10T11:33:21.378Z,11.87
2019-03-10T11:36:13.448Z,17.23
2019-03-10T11:38:47.047Z,11.53
2019-03-10T11:41:20.919Z,14.90
2019-03-10T11:43:54.525Z,16.77
2019-03-10T11:46:28.383Z,13.07
2019-03-10T11:49:13.845Z,9.97
2019-03-10T11:52:05.593Z,8.77
2019-03-10T11:54:39.209Z,10.87
2019-03-10T11:57:15.420Z,9.63
2019-03-10T11:59:49.009Z,12.40
2019-03-10T12:02:28.587Z,14.57
2019-03-10T12:05:18.238Z,15.93
2019-03-10T12:07:54.574Z,15.37
2019-03-10T12:10:26.540Z,13.20
2019-03-10T12:12:59.109Z,15.03
2019-03-10T12:15:31.252Z,11.00
2019-03-10T12:18:03.276Z,10.80
2019-03-10T12:20:35.543Z,14.53
2019-03-10T12:23:07.490Z,12.13
2019-03-10T12:25:39.470Z,13.27
2019-03-10T12:28:11.430Z,8.40
2019-03-10T12:30:43.702Z,7.40
2019-03-10T12:33:15.668Z,11.13
2019-03-10T12:35:48.147Z,14.07
2019-03-10T12:38:20.153Z,6.97
2019-03-10T12:40:52.886Z,13.30
2019-03-10T12:43:24.857Z,6.70
2019-03-10T12:45:56.821Z,8.87
2019-03-10T12:48:28.795Z,11.37
2019-03-10T12:51:00.890Z,13.20
2019-03-10T12:53:32.858Z,8.30
2019-03-10T12:56:04.814Z,6.90
2019-03-10T12:58:36.828Z,9.70
2019-03-10T13:01:09.118Z,9.37
2019-03-10T13:03:41.171Z,11.17
2019-03-10T13:06:13.229Z,8.87
2019-03-10T13:08:45.225Z,9.43
2019-03-10T13:11:17.206Z,7.63
2019-03-10T13:13:49.199Z,15.40
2019-03-10T13:16:21.151Z,8.97
2019-03-10T13:18:53.114Z,14.90
2019-03-10T13:21:26.125Z,9.30
2019-03-10T13:23:58.474Z,11.50
2019-03-10T13:26:30.424Z,8.63
2019-03-10T13:29:02.417Z,9.77
2019-03-10T13:31:34.789Z,12.70
2019-03-10T13:34:07.096Z,12.00
2019-03-10T13:36:39.018Z,8.77
2019-03-10T13:39:11.037Z,7.33
2019-03-10T13:41:42.989Z,5.83
2019-03-10T13:44:15.008Z,9.60
2019-03-10T13:46:46.988Z,11.43
2019-03-10T13:49:19.034Z,10.00
2019-03-10T13:51:50.978Z,10.23
2019-03-10T13:54:22.937Z,8.63
2019-03-10T13:56:55.188Z,10.83
2019-03-10T13:59:27.116Z,8.20
2019-03-10T14:01:59.098Z,17.50
2019-03-10T14:04:31.052Z,13.43
2019-03-10T14:07:03.321Z,9.13
2019-03-10T14:09:35.260Z,6.93
2019-03-10T14:12:07.243Z,17.10
2019-03-10T14:14:39.367Z,14.63
2019-03-10T14:17:11.291Z,9.63
2019-03-10T14:19:43.566Z,10.40
2019-03-10T14:22:15.525Z,14.87
2019-03-10T14:24:47.489Z,10.60
2019-03-10T14:27:19.988Z,12.70
2019-03-10T14:29:51.905Z,8.97
2019-03-10T14:32:23.942Z,20.33
2019-03-10T14:34:55.885Z,14.37
2019-03-10T14:37:27.922Z,12.13
2019-03-10T14:39:59.892Z,11.43
2019-03-10T14:42:32.290Z,13.47
2019-03-10T14:45:09.429Z,14.13
2019-03-10T14:47:41.416Z,14.57
2019-03-10T14:50:18.963Z,14.20
2019-03-10T14:52:50.976Z,14.80
2019-03-10T14:55:23.855Z,13.13
2019-03-10T14:57:55.871Z,10.73
2019-03-10T15:00:32.192Z,15.13
2019-03-10T15:03:04.112Z,8.73
2019-03-10T15:05:36.097Z,13.53
2019-03-10T15:08:08.026Z,14.63
2019-03-10T15:10:40.006Z,11.50
2019-03-10T15:13:11.958Z,11.57
2019-03-10T15:15:43.933Z,14.10
2019-03-10T15:18:15.875Z,19.77
2019-03-10T15:20:47.888Z,12.77
2019-03-10T15:23:19.867Z,18.17
2019-03-10T15:25:51.835Z,15.70
2019-03-10T15:28:23.787Z,14.10
2019-03-10T15:30:55.722Z,9.63
2019-03-10T15:33:27.679Z,14.13
2019-03-10T15:36:00.097Z,19.03
2019-03-10T15:38:32.053Z,16.40
2019-03-10T15:41:03.997Z,13.23
2019-03-10T15:43:36.262Z,17.10
2019-03-10T15:46:08.535Z,12.70
2019-03-10T15:48:40.504Z,12.53
2019-03-10T15:51:12.468Z,14.37
2019-03-10T15:53:44.418Z,14.53
2019-03-10T15:56:16.381Z,13.67
2019-03-10T15:58:48.325Z,10.17
2019-03-10T16:01:20.417Z,11.93
2019-03-10T16:03:52.372Z,8.60
2019-03-10T16:06:24.399Z,8.13
2019-03-10T16:08:56.345Z,15.30
2019-03-10T16:11:28.305Z,13.33
2019-03-10T16:14:00.244Z,15.87
2019-03-10T16:16:32.230Z,13.57
2019-03-10T16:19:04.848Z,16.17
2019-03-10T16:21:36.809Z,14.33
2019-03-10T16:24:09.133Z,12.13
2019-03-10T16:26:41.069Z,11.67
2019-03-10T16:29:13.031Z,18.50
2019-03-10T16:31:44.973Z,12.70
2019-03-10T16:34:16.942Z,15.23
2019-03-10T16:36:48.878Z,16.70
2019-03-10T16:39:20.872Z,11.73
2019-03-10T16:41:52.815Z,16.83
2019-03-10T16:44:24.775Z,14.83
2019-03-10T16:47:00.553Z,13.87
2019-03-10T16:49:32.616Z,13.13
2019-03-10T16:52:05.059Z,15.43
2019-03-10T16:54:37.058Z,13.43
2019-03-10T16:57:09.091Z,18.10
2019-03-10T16:59:41.023Z,18.30
2019-03-10T17:02:13.498Z,16.20
2019-03-10T17:04:45.703Z,17.77
2019-03-10T17:07:17.657Z,15.17
2019-03-10T17:09:49.903Z,15.40
2019-03-10T17:12:21.844Z,16.97
2019-03-10T17:14:54.131Z,24.13
2019-03-10T17:17:26.094Z,14.57
2019-03-10T17:19:58.076Z,16.33
2019-03-10T17:22:30.018Z,14.87
2019-03-10T17:25:05.039Z,14.00
2019-03-10T17:27:37.062Z,15.97
2019-03-10T17:30:22.836Z,12.07
2019-03-10T17:32:54.771Z,14.57
2019-03-10T17:35:27.032Z,17.83
2019-03-10T17:37:59.224Z,9.43
2019-03-10T17:40:31.211Z,15.20
2019-03-10T17:43:03.180Z,13.37
2019-03-10T17:45:35.197Z,20.30
2019-03-10T17:48:07.154Z,13.20
2019-03-10T17:50:39.465Z,14.20
2019-03-10T17:53:11.465Z,13.83
2019-03-10T17:55:43.436Z,13.47
2019-03-10T17:58:15.360Z,9.03
2019-03-10T18:00:47.353Z,11.03
2019-03-10T18:03:19.302Z,12.57
2019-03-10T18:05:51.312Z,8.07
2019-03-10T18:08:23.283Z,14.17
2019-03-10T18:10:55.517Z,8.93
2019-03-10T18:13:27.485Z,9.03
2019-03-10T18:15:59.453Z,17.90
2019-03-10T18:18:31.649Z,11.27
2019-03-10T18:21:03.634Z,14.07
2019-03-10T18:23:35.924Z,12.93
2019-03-10T18:26:09.743Z,14.53
2019-03-10T18:28:41.998Z,11.37
2019-03-10T18:31:14.265Z,13.13
2019-03-10T18:33:46.243Z,12.73
2019-03-10T18:36:18.179Z,9.90
2019-03-10T18:38:50.463Z,11.63
2019-03-10T18:41:22.409Z,13.30
2019-03-10T18:43:54.374Z,13.73
2019-03-10T18:46:26.303Z,9.50
2019-03-10T18:48:58.281Z,10.70
2019-03-10T18:51:30.243Z,10.37
2019-03-10T18:54:02.197Z,14.70
2019-03-10T18:56:34.251Z,11.53
2019-03-10T18:59:06.198Z,13.87
2019-03-10T19:01:38.169Z,13.47
2019-03-10T19:04:10.292Z,11.37
2019-03-10T19:06:42.229Z,10.70
2019-03-10T19:09:16.410Z,17.40
2019-03-10T19:11:48.255Z,10.67
2019-03-10T19:14:20.218Z,15.63
2019-03-10T19:16:52.224Z,10.17
2019-03-10T19:19:24.186Z,13.80
2019-03-10T19:21:56.411Z,12.60
2019-03-10T19:24:28.365Z,11.57
2019-03-10T19:27:00.336Z,12.87
2019-03-10T19:29:32.284Z,13.17
2019-03-10T19:32:04.315Z,11.90
2019-03-10T19:34:36.264Z,15.93
2019-03-10T19:37:08.208Z,8.83
2019-03-10T19:39:40.171Z,11.97
2019-03-10T19:42:12.215Z,14.73
2019-03-10T19:44:44.172Z,11.17
2019-03-10T19:47:16.129Z,16.40
2019-03-10T19:49:48.078Z,15.27
2019-03-10T19:52:20.383Z,20.20
2019-03-10T19:54:52.329Z,18.00
2019-03-10T19:57:24.294Z,13.17
2019-03-10T19:59:56.586Z,15.30
2019-03-10T20:02:28.612Z,12.93
2019-03-10T20:05:00.570Z,10.77
2019-03-10T20:07:32.527Z,10.93
2019-03-10T20:10:16.284Z,9.97
2019-03-10T20:12:48.272Z,14.30
2019-03-10T20:15:25.574Z,16.07
2019-03-10T20:17:57.781Z,13.40
2019-03-10T20:20:33.391Z,11.53
2019-03-10T20:23:05.813Z,11.83
2019-03-10T20:25:38.016Z,9.30
2019-03-10T20:28:09.980Z,15.50
2019-03-10T20:30:41.949Z,13.37
2019-03-10T20:33:15.073Z,13.40
2019-03-10T20:35:47.050Z,11.00
2019-03-10T20:38:18.979Z,12.97
2019-03-10T20:40:50.955Z,17.63
2019-03-10T20:43:22.873Z,9.77
2019-03-10T20:45:54.842Z,9.60
2019-03-10T20:48:27.109Z,9.53
2019-03-10T20:50:59.055Z,7.20
2019-03-10T20:53:31.034Z,11.77
2019-03-10T20:56:02.993Z,16.00
2019-03-10T20:58:35.162Z,22.63
2019-03-10T21:01:07.179Z,10.10
2019-03-10T21:03:39.129Z,12.47
2019-03-10T21:06:11.099Z,14.70
2019-03-10T21:08:43.150Z,12.40
2019-03-10T21:11:15.542Z,15.13
2019-03-10T21:13:47.811Z,13.33
2019-03-10T21:16:19.752Z,9.87
2019-03-10T21:18:51.761Z,12.70
2019-03-10T21:21:23.783Z,13.40
2019-03-10T21:23:55.710Z,9.20
2019-03-10T21:26:28.073Z,11.47
2019-03-10T21:29:00.032Z,23.33
2019-03-10T21:31:31.999Z,13.13
2019-03-10T21:34:03.969Z,12.73
2019-03-10T21:36:37.643Z,14.10
2019-03-10T21:39:09.690Z,11.53
2019-03-10T21:41:42.170Z,13.97
2019-03-10T21:44:14.376Z,9.17
2019-03-10T21:46:46.359Z,15.83
2019-03-10T21:49:18.390Z,13.57
2019-03-10T21:51:50.525Z,8.90
2019-03-10T21:54:22.942Z,16.33
2019-03-10T21:56:54.921Z,12.10
2019-03-10T21:59:26.883Z,15.30
2019-03-10T22:01:59.103Z,15.03
2019-03-10T22:04:31.030Z,8.10
2019-03-10T22:07:03.026Z,14.93
2019-03-10T22:09:35.166Z,11.40
2019-03-10T22:12:07.187Z,13.60
2019-03-10T22:14:39.445Z,10.93
2019-03-10T22:17:11.406Z,11.73
2019-03-10T22:19:43.331Z,7.07
2019-03-10T22:22:15.349Z,13.13
2019-03-10T22:24:47.322Z,15.80
2019-03-10T22:27:19.278Z,14.37
2019-03-10T22:29:51.249Z,10.83
2019-03-10T22:32:23.206Z,10.43
2019-03-10T22:34:55.174Z,10.03
2019-03-10T22:37:27.127Z,12.37
2019-03-10T22:39:59.148Z,11.33
2019-03-10T22:42:31.107Z,11.63
2019-03-10T22:45:03.101Z,10.10
2019-03-10T22:47:35.047Z,15.33
2019-03-10T22:50:14.538Z,15.20
2019-03-10T22:52:46.561Z,12.03
2019-03-10T22:55:18.536Z,12.73
2019-03-10T22:57:50.452Z,8.30
2019-03-10T23:00:31.263Z,13.37
2019-03-10T23:03:03.692Z,13.27
2019-03-10T23:05:35.627Z,8.87
2019-03-10T23:08:07.872Z,13.50
2019-03-10T23:10:40.252Z,18.37
2019-03-10T23:13:12.452Z,16.00
2019-03-10T23:15:44.399Z,11.70
2019-03-10T23:18:16.368Z,11.80
2019-03-10T23:20:48.359Z,11.73
2019-03-10T23:23:20.324Z,11.47
2019-03-10T23:25:52.324Z,13.77
2019-03-10T23:28:24.743Z,10.47
2019-03-10T23:30:56.711Z,11.67
2019-03-10T23:33:28.675Z,11.70
2019-03-10T23:36:00.612Z,9.00
2019-03-10T23:38:32.603Z,11.17
2019-03-10T23:41:04.593Z,10.03
2019-03-10T23:43:36.556Z,12.03
2019-03-10T23:46:08.508Z,10.47
2019-03-10T23:48:40.466Z,21.03
2019-03-10T23:51:12.428Z,12.80
2019-03-10T23:53:44.345Z,6.47
2019-03-10T23:56:16.317Z,9.23
2019-03-10T23:58:48.596Z,10.87
